sensor_id;sensor_type;location;lat;lon;timestamp;P1;durP1;ratioP1;P2;durP2;ratioP2
69523;SDS011;56723;42.694;23.286;2023-02-01T00:47:11;7.30;;;5.37;;
69523;SDS011;56723;42.694;23.286;2023-02-01T00:49:38;6.50;;;4.30;;
69523;SDS011;56723;42.694;23.286;2023-02-01T00:52:05;7.37;;;5.40;;
69523;SDS011;56723;42.694;23.286;2023-02-01T00:54:32;9.83;;;4.97;;
69523;SDS011;56723;42.694;23.286;2023-02-01T00:57:00;6.07;;;4.30;;
69523;SDS011;56723;42.694;23.286;2023-02-01T00:59:27;6.60;;;4.47;;
69523;SDS011;56723;42.694;23.286;2023-02-01T01:01:54;5.27;;;3.47;;
69523;SDS011;56723;42.694;23.286;2023-02-01T01:04:21;5.00;;;3.57;;
69523;SDS011;56723;42.694;23.286;2023-02-01T07:31:42;8.97;;;4.90;;
69523;SDS011;56723;42.694;23.286;2023-02-01T07:34:09;9.83;;;4.07;;
69523;SDS011;56723;42.694;23.286;2023-02-01T07:36:36;10.67;;;3.57;;
69523;SDS011;56723;42.694;23.286;2023-02-01T07:39:03;6.17;;;3.20;;
69523;SDS011;56723;42.694;23.286;2023-02-01T07:41:30;8.53;;;4.13;;
69523;SDS011;56723;42.694;23.286;2023-02-01T07:43:57;8.83;;;4.23;;
69523;SDS011;56723;42.694;23.286;2023-02-01T07:46:25;8.40;;;4.27;;
69523;SDS011;56723;42.694;23.286;2023-02-01T07:48:52;12.87;;;5.50;;
69523;SDS011;56723;42.694;23.286;2023-02-01T07:51:19;8.13;;;4.07;;
69523;SDS011;56723;42.694;23.286;2023-02-01T07:53:46;7.97;;;4.13;;
69523;SDS011;56723;42.694;23.286;2023-02-01T07:56:14;9.27;;;3.77;;
69523;SDS011;56723;42.694;23.286;2023-02-01T07:58:51;10.27;;;5.00;;
69523;SDS011;56723;42.694;23.286;2023-02-01T08:01:24;14.40;;;5.23;;
69523;SDS011;56723;42.694;23.286;2023-02-01T08:03:55;5.63;;;3.03;;
69523;SDS011;56723;42.694;23.286;2023-02-01T08:06:27;11.47;;;4.33;;
69523;SDS011;56723;42.694;23.286;2023-02-01T08:08:57;10.17;;;4.20;;
69523;SDS011;56723;42.694;23.286;2023-02-01T08:11:25;9.50;;;4.17;;
69523;SDS011;56723;42.694;23.286;2023-02-01T08:13:52;11.63;;;5.30;;
69523;SDS011;56723;42.694;23.286;2023-02-01T08:16:20;15.23;;;4.90;;
69523;SDS011;56723;42.694;23.286;2023-02-01T08:18:48;8.27;;;3.73;;
69523;SDS011;56723;42.694;23.286;2023-02-01T08:21:19;8.17;;;4.13;;
69523;SDS011;56723;42.694;23.286;2023-02-01T08:23:48;5.63;;;2.97;;
69523;SDS011;56723;42.694;23.286;2023-02-01T08:28:46;8.02;;;3.05;;
69523;SDS011;56723;42.694;23.286;2023-02-01T08:31:19;12.33;;;4.30;;
69523;SDS011;56723;42.694;23.286;2023-02-01T08:33:48;7.17;;;4.00;;
69523;SDS011;56723;42.694;23.286;2023-02-01T08:38:44;7.73;;;3.40;;
69523;SDS011;56723;42.694;23.286;2023-02-01T08:41:13;9.27;;;4.03;;
69523;SDS011;56723;42.694;23.286;2023-02-01T08:43:44;8.57;;;3.47;;
69523;SDS011;56723;42.694;23.286;2023-02-01T08:46:12;7.87;;;3.97;;
69523;SDS011;56723;42.694;23.286;2023-02-01T08:48:39;7.27;;;4.00;;
69523;SDS011;56723;42.694;23.286;2023-02-01T08:51:07;9.07;;;4.10;;
69523;SDS011;56723;42.694;23.286;2023-02-01T08:53:37;11.30;;;3.70;;
69523;SDS011;56723;42.694;23.286;2023-02-01T08:56:04;4.77;;;1.60;;
69523;SDS011;56723;42.694;23.286;2023-02-01T08:58:32;6.63;;;2.70;;
69523;SDS011;56723;42.694;23.286;2023-02-01T09:01:04;10.13;;;4.13;;
69523;SDS011;56723;42.694;23.286;2023-02-01T09:03:32;9.80;;;4.40;;
69523;SDS011;56723;42.694;23.286;2023-02-01T09:05:59;5.40;;;2.60;;
69523;SDS011;56723;42.694;23.286;2023-02-01T09:08:27;8.93;;;3.93;;
69523;SDS011;56723;42.694;23.286;2023-02-01T09:10:57;7.07;;;3.03;;
69523;SDS011;56723;42.694;23.286;2023-02-01T09:13:28;4.27;;;1.87;;
69523;SDS011;56723;42.694;23.286;2023-02-01T09:15:55;5.33;;;1.90;;
69523;SDS011;56723;42.694;23.286;2023-02-01T09:18:22;8.10;;;1.80;;
69523;SDS011;56723;42.694;23.286;2023-02-01T09:20:49;5.53;;;2.60;;
69523;SDS011;56723;42.694;23.286;2023-02-01T09:23:16;9.13;;;2.50;;
69523;SDS011;56723;42.694;23.286;2023-02-01T09:25:43;4.93;;;2.03;;
69523;SDS011;56723;42.694;23.286;2023-02-01T09:28:10;4.57;;;1.70;;
69523;SDS011;56723;42.694;23.286;2023-02-01T09:30:37;5.83;;;1.80;;
69523;SDS011;56723;42.694;23.286;2023-02-01T09:33:04;3.77;;;1.60;;
69523;SDS011;56723;42.694;23.286;2023-02-01T09:35:31;6.10;;;2.60;;
69523;SDS011;56723;42.694;23.286;2023-02-01T09:37:58;5.40;;;2.27;;
69523;SDS011;56723;42.694;23.286;2023-02-01T09:40:25;4.43;;;2.00;;
69523;SDS011;56723;42.694;23.286;2023-02-01T09:42:57;10.03;;;2.83;;
69523;SDS011;56723;42.694;23.286;2023-02-01T09:48:34;5.18;;;2.60;;
69523;SDS011;56723;42.694;23.286;2023-02-01T09:51:06;6.30;;;2.53;;
69523;SDS011;56723;42.694;23.286;2023-02-01T09:53:44;6.87;;;3.70;;
69523;SDS011;56723;42.694;23.286;2023-02-01T09:56:21;4.70;;;2.03;;
69523;SDS011;56723;42.694;23.286;2023-02-01T09:59:01;5.83;;;1.87;;
69523;SDS011;56723;42.694;23.286;2023-02-01T10:01:36;6.23;;;2.03;;
69523;SDS011;56723;42.694;23.286;2023-02-01T10:04:08;4.67;;;2.30;;
69523;SDS011;56723;42.694;23.286;2023-02-01T10:07:04;5.83;;;1.73;;
69523;SDS011;56723;42.694;23.286;2023-02-01T10:20:56;5.88;;;2.60;;
69523;SDS011;56723;42.694;23.286;2023-02-01T10:24:06;5.93;;;3.40;;
69523;SDS011;56723;42.694;23.286;2023-02-01T10:26:45;5.07;;;3.23;;
69523;SDS011;56723;42.694;23.286;2023-02-01T10:29:21;6.63;;;3.03;;
69523;SDS011;56723;42.694;23.286;2023-02-01T10:31:51;5.93;;;3.37;;
69523;SDS011;56723;42.694;23.286;2023-02-01T10:34:26;7.43;;;3.57;;
69523;SDS011;56723;42.694;23.286;2023-02-01T10:37:14;7.30;;;3.07;;
69523;SDS011;56723;42.694;23.286;2023-02-01T10:39:48;4.57;;;1.73;;
69523;SDS011;56723;42.694;23.286;2023-02-01T10:42:17;4.03;;;2.03;;
69523;SDS011;56723;42.694;23.286;2023-02-01T10:44:46;5.57;;;2.03;;
69523;SDS011;56723;42.694;23.286;2023-02-01T10:47:14;4.87;;;2.07;;
69523;SDS011;56723;42.694;23.286;2023-02-01T10:50:01;5.63;;;1.50;;
69523;SDS011;56723;42.694;23.286;2023-02-01T10:52:47;6.27;;;1.90;;
69523;SDS011;56723;42.694;23.286;2023-02-01T10:55:33;3.73;;;2.03;;
69523;SDS011;56723;42.694;23.286;2023-02-01T10:58:17;5.27;;;1.90;;
69523;SDS011;56723;42.694;23.286;2023-02-01T11:00:53;8.00;;;3.00;;
69523;SDS011;56723;42.694;23.286;2023-02-01T11:05:54;6.53;;;3.10;;
69523;SDS011;56723;42.694;23.286;2023-02-01T11:08:22;5.90;;;2.88;;
69523;SDS011;56723;42.694;23.286;2023-02-01T11:10:56;5.43;;;2.93;;
69523;SDS011;56723;42.694;23.286;2023-02-01T11:13:31;3.45;;;1.80;;
69523;SDS011;56723;42.694;23.286;2023-02-01T11:16:03;2.33;;;1.03;;
69523;SDS011;56723;42.694;23.286;2023-02-01T11:18:35;4.00;;;1.23;;
69523;SDS011;56723;42.694;23.286;2023-02-01T11:21:07;4.20;;;1.50;;
69523;SDS011;56723;42.694;23.286;2023-02-01T11:23:39;5.00;;;1.60;;
69523;SDS011;56723;42.694;23.286;2023-02-01T11:26:10;1.73;;;1.10;;
69523;SDS011;56723;42.694;23.286;2023-02-01T11:28:42;3.73;;;1.37;;
69523;SDS011;56723;42.694;23.286;2023-02-01T11:31:17;3.63;;;1.10;;
69523;SDS011;56723;42.694;23.286;2023-02-01T11:33:48;5.10;;;0.93;;
69523;SDS011;56723;42.694;23.286;2023-02-01T11:36:23;4.73;;;1.67;;
69523;SDS011;56723;42.694;23.286;2023-02-01T11:39:06;3.77;;;1.67;;
69523;SDS011;56723;42.694;23.286;2023-02-01T11:41:40;3.13;;;1.03;;
69523;SDS011;56723;42.694;23.286;2023-02-01T11:44:23;3.63;;;1.57;;
69523;SDS011;56723;42.694;23.286;2023-02-01T11:49:58;4.73;;;1.57;;
69523;SDS011;56723;42.694;23.286;2023-02-01T12:01:09;3.20;;;0.93;;
69523;SDS011;56723;42.694;23.286;2023-02-01T12:12:58;2.83;;;1.60;;
69523;SDS011;56723;42.694;23.286;2023-02-01T12:24:06;4.70;;;1.80;;
69523;SDS011;56723;42.694;23.286;2023-02-01T12:43:39;4.47;;;2.37;;
69523;SDS011;56723;42.694;23.286;2023-02-01T12:46:30;3.40;;;1.17;;
69523;SDS011;56723;42.694;23.286;2023-02-01T12:49:17;3.43;;;1.03;;
69523;SDS011;56723;42.694;23.286;2023-02-01T12:51:53;12.90;;;5.70;;
69523;SDS011;56723;42.694;23.286;2023-02-01T12:54:40;4.70;;;1.30;;
69523;SDS011;56723;42.694;23.286;2023-02-01T12:57:31;2.10;;;0.83;;
69523;SDS011;56723;42.694;23.286;2023-02-01T13:00:13;2.77;;;0.83;;
69523;SDS011;56723;42.694;23.286;2023-02-01T13:08:34;5.57;;;2.50;;
69523;SDS011;56723;42.694;23.286;2023-02-01T13:11:18;4.97;;;1.20;;
69523;SDS011;56723;42.694;23.286;2023-02-01T13:16:49;52.20;;;23.47;;
69523;SDS011;56723;42.694;23.286;2023-02-01T13:19:25;6.00;;;2.00;;
69523;SDS011;56723;42.694;23.286;2023-02-01T13:22:00;6.90;;;3.03;;
69523;SDS011;56723;42.694;23.286;2023-02-01T13:27:15;2.53;;;1.20;;
69523;SDS011;56723;42.694;23.286;2023-02-01T13:29:47;4.33;;;1.77;;
69523;SDS011;56723;42.694;23.286;2023-02-01T13:35:24;3.87;;;1.70;;
69523;SDS011;56723;42.694;23.286;2023-02-01T13:41:09;2.75;;;0.60;;
69523;SDS011;56723;42.694;23.286;2023-02-01T13:47:01;2.67;;;0.60;;
69523;SDS011;56723;42.694;23.286;2023-02-01T13:49:32;2.17;;;0.67;;
69523;SDS011;56723;42.694;23.286;2023-02-01T13:52:04;2.43;;;0.90;;
69523;SDS011;56723;42.694;23.286;2023-02-01T13:54:36;3.90;;;1.30;;
69523;SDS011;56723;42.694;23.286;2023-02-01T13:57:06;3.40;;;1.50;;
69523;SDS011;56723;42.694;23.286;2023-02-01T14:02:50;4.87;;;2.53;;
69523;SDS011;56723;42.694;23.286;2023-02-01T14:13:38;4.30;;;2.00;;
69523;SDS011;56723;42.694;23.286;2023-02-01T14:16:11;4.67;;;1.57;;
69523;SDS011;56723;42.694;23.286;2023-02-01T14:29:18;4.63;;;1.90;;
69523;SDS011;56723;42.694;23.286;2023-02-01T14:39:52;6.83;;;3.40;;
69523;SDS011;56723;42.694;23.286;2023-02-01T14:47:52;4.30;;;2.43;;
69523;SDS011;56723;42.694;23.286;2023-02-01T14:55:42;5.80;;;2.90;;
69523;SDS011;56723;42.694;23.286;2023-02-01T15:01:49;10.83;;;5.23;;
69523;SDS011;56723;42.694;23.286;2023-02-01T15:06:46;10.73;;;6.30;;
69523;SDS011;56723;42.694;23.286;2023-02-01T15:12:15;14.00;;;6.57;;
69523;SDS011;56723;42.694;23.286;2023-02-01T15:14:45;11.17;;;6.30;;
69523;SDS011;56723;42.694;23.286;2023-02-01T15:17:30;11.27;;;6.17;;
69523;SDS011;56723;42.694;23.286;2023-02-01T15:20:01;9.20;;;3.23;;
69523;SDS011;56723;42.694;23.286;2023-02-01T15:22:38;9.53;;;5.27;;
69523;SDS011;56723;42.694;23.286;2023-02-01T15:25:05;8.80;;;3.37;;
69523;SDS011;56723;42.694;23.286;2023-02-01T15:27:44;9.88;;;5.10;;
69523;SDS011;56723;42.694;23.286;2023-02-01T15:32:47;14.67;;;6.60;;
69523;SDS011;56723;42.694;23.286;2023-02-01T15:43:28;6.13;;;2.93;;
69523;SDS011;56723;42.694;23.286;2023-02-01T15:45:57;6.30;;;2.58;;
69523;SDS011;56723;42.694;23.286;2023-02-01T15:48:27;3.90;;;1.33;;
69523;SDS011;56723;42.694;23.286;2023-02-01T15:51:03;4.83;;;1.60;;
69523;SDS011;56723;42.694;23.286;2023-02-01T15:53:30;5.33;;;2.43;;
69523;SDS011;56723;42.694;23.286;2023-02-01T15:56:00;7.40;;;3.07;;
69523;SDS011;56723;42.694;23.286;2023-02-01T15:58:30;9.40;;;4.67;;
69523;SDS011;56723;42.694;23.286;2023-02-01T16:01:02;14.63;;;7.93;;
69523;SDS011;56723;42.694;23.286;2023-02-01T16:06:04;6.70;;;3.50;;
69523;SDS011;56723;42.694;23.286;2023-02-01T16:08:34;11.17;;;5.50;;
69523;SDS011;56723;42.694;23.286;2023-02-01T16:13:36;17.97;;;9.23;;
69523;SDS011;56723;42.694;23.286;2023-02-01T16:16:03;18.90;;;9.83;;
69523;SDS011;56723;42.694;23.286;2023-02-01T16:18:34;18.00;;;7.97;;
69523;SDS011;56723;42.694;23.286;2023-02-01T16:21:01;18.83;;;7.90;;
69523;SDS011;56723;42.694;23.286;2023-02-01T16:23:28;10.43;;;5.83;;
69523;SDS011;56723;42.694;23.286;2023-02-01T16:28:24;11.13;;;6.13;;
69523;SDS011;56723;42.694;23.286;2023-02-01T16:30:52;12.47;;;7.27;;
69523;SDS011;56723;42.694;23.286;2023-02-01T16:33:20;15.43;;;8.53;;
69523;SDS011;56723;42.694;23.286;2023-02-01T16:35:51;21.30;;;10.47;;
69523;SDS011;56723;42.694;23.286;2023-02-01T16:38:23;13.37;;;7.10;;
69523;SDS011;56723;42.694;23.286;2023-02-01T16:40:50;9.30;;;5.20;;
69523;SDS011;56723;42.694;23.286;2023-02-01T16:43:18;2.17;;;1.10;;
69523;SDS011;56723;42.694;23.286;2023-02-01T16:45:49;3.53;;;1.07;;
69523;SDS011;56723;42.694;23.286;2023-02-01T16:48:26;3.53;;;1.10;;
69523;SDS011;56723;42.694;23.286;2023-02-01T16:50:59;3.57;;;1.57;;
69523;SDS011;56723;42.694;23.286;2023-02-01T16:53:29;4.73;;;2.17;;
69523;SDS011;56723;42.694;23.286;2023-02-01T16:56:14;9.00;;;4.38;;
69523;SDS011;56723;42.694;23.286;2023-02-01T16:59:00;10.33;;;4.37;;
69523;SDS011;56723;42.694;23.286;2023-02-01T17:01:28;5.23;;;3.00;;
69523;SDS011;56723;42.694;23.286;2023-02-01T17:03:55;7.23;;;4.10;;
69523;SDS011;56723;42.694;23.286;2023-02-01T17:06:23;13.00;;;7.80;;
69523;SDS011;56723;42.694;23.286;2023-02-01T17:11:24;21.20;;;10.03;;
69523;SDS011;56723;42.694;23.286;2023-02-01T17:13:53;28.15;;;14.85;;
69523;SDS011;56723;42.694;23.286;2023-02-01T17:18:58;11.37;;;5.97;;
69523;SDS011;56723;42.694;23.286;2023-02-01T17:21:29;11.43;;;4.93;;
69523;SDS011;56723;42.694;23.286;2023-02-01T17:24:09;9.87;;;2.67;;
69523;SDS011;56723;42.694;23.286;2023-02-01T17:26:38;4.27;;;1.43;;
69523;SDS011;56723;42.694;23.286;2023-02-01T17:29:05;3.17;;;1.33;;
69523;SDS011;56723;42.694;23.286;2023-02-01T17:31:33;6.17;;;2.53;;
69523;SDS011;56723;42.694;23.286;2023-02-01T17:34:04;6.07;;;2.30;;
69523;SDS011;56723;42.694;23.286;2023-02-01T17:36:31;5.70;;;1.77;;
69523;SDS011;56723;42.694;23.286;2023-02-01T17:38:58;3.63;;;1.83;;
69523;SDS011;56723;42.694;23.286;2023-02-01T17:41:31;3.13;;;0.97;;
69523;SDS011;56723;42.694;23.286;2023-02-01T17:43:59;2.97;;;0.93;;
69523;SDS011;56723;42.694;23.286;2023-02-01T17:46:26;3.10;;;1.27;;
69523;SDS011;56723;42.694;23.286;2023-02-01T17:48:53;1.57;;;0.73;;
69523;SDS011;56723;42.694;23.286;2023-02-01T17:51:25;3.50;;;0.80;;
69523;SDS011;56723;42.694;23.286;2023-02-01T17:53:53;2.10;;;0.70;;
69523;SDS011;56723;42.694;23.286;2023-02-01T17:56:21;2.63;;;0.90;;
69523;SDS011;56723;42.694;23.286;2023-02-01T17:58:49;1.30;;;0.80;;
69523;SDS011;56723;42.694;23.286;2023-02-01T18:01:20;2.57;;;1.07;;
69523;SDS011;56723;42.694;23.286;2023-02-01T18:03:49;3.00;;;0.90;;
69523;SDS011;56723;42.694;23.286;2023-02-01T18:06:18;8.13;;;4.90;;
69523;SDS011;56723;42.694;23.286;2023-02-01T18:08:48;4.10;;;1.23;;
69523;SDS011;56723;42.694;23.286;2023-02-01T18:11:17;3.83;;;1.03;;
69523;SDS011;56723;42.694;23.286;2023-02-01T18:13:45;5.20;;;3.00;;
69523;SDS011;56723;42.694;23.286;2023-02-01T18:16:19;4.03;;;1.30;;
69523;SDS011;56723;42.694;23.286;2023-02-01T18:18:51;8.00;;;2.70;;
69523;SDS011;56723;42.694;23.286;2023-02-01T18:21:19;3.23;;;1.77;;
69523;SDS011;56723;42.694;23.286;2023-02-01T18:23:48;5.32;;;2.05;;
69523;SDS011;56723;42.694;23.286;2023-02-01T18:26:15;5.93;;;1.83;;
69523;SDS011;56723;42.694;23.286;2023-02-01T18:28:44;8.82;;;3.10;;
69523;SDS011;56723;42.694;23.286;2023-02-01T18:31:24;13.17;;;6.17;;
69523;SDS011;56723;42.694;23.286;2023-02-01T18:33:55;15.23;;;8.63;;
69523;SDS011;56723;42.694;23.286;2023-02-01T18:36:25;13.33;;;7.10;;
69523;SDS011;56723;42.694;23.286;2023-02-01T18:38:53;4.93;;;2.30;;
69523;SDS011;56723;42.694;23.286;2023-02-01T18:41:23;5.07;;;2.73;;
69523;SDS011;56723;42.694;23.286;2023-02-01T18:43:51;4.40;;;2.23;;
69523;SDS011;56723;42.694;23.286;2023-02-01T18:46:19;10.47;;;5.30;;
69523;SDS011;56723;42.694;23.286;2023-02-01T18:48:48;6.63;;;3.85;;
69523;SDS011;56723;42.694;23.286;2023-02-01T18:51:23;7.70;;;3.90;;
69523;SDS011;56723;42.694;23.286;2023-02-01T18:53:50;9.23;;;4.93;;
69523;SDS011;56723;42.694;23.286;2023-02-01T18:56:17;7.50;;;3.73;;
69523;SDS011;56723;42.694;23.286;2023-02-01T18:58:45;9.97;;;5.70;;
69523;SDS011;56723;42.694;23.286;2023-02-01T19:01:16;10.87;;;5.70;;
69523;SDS011;56723;42.694;23.286;2023-02-01T19:03:46;15.47;;;7.00;;
69523;SDS011;56723;42.694;23.286;2023-02-01T19:06:31;15.77;;;8.00;;
69523;SDS011;56723;42.694;23.286;2023-02-01T19:08:58;18.33;;;9.47;;
69523;SDS011;56723;42.694;23.286;2023-02-01T19:11:25;18.47;;;10.37;;
69523;SDS011;56723;42.694;23.286;2023-02-01T19:13:52;18.93;;;9.20;;
69523;SDS011;56723;42.694;23.286;2023-02-01T19:16:20;16.17;;;8.07;;
69523;SDS011;56723;42.694;23.286;2023-02-01T19:18:50;8.43;;;3.93;;
69523;SDS011;56723;42.694;23.286;2023-02-01T19:21:18;6.07;;;3.20;;
69523;SDS011;56723;42.694;23.286;2023-02-01T19:23:45;7.07;;;3.57;;
69523;SDS011;56723;42.694;23.286;2023-02-01T19:26:13;5.73;;;2.53;;
69523;SDS011;56723;42.694;23.286;2023-02-01T19:28:41;8.27;;;3.05;;
69523;SDS011;56723;42.694;23.286;2023-02-01T19:31:13;5.53;;;2.43;;
69523;SDS011;56723;42.694;23.286;2023-02-01T19:33:41;9.90;;;3.20;;
69523;SDS011;56723;42.694;23.286;2023-02-01T19:36:08;6.43;;;3.10;;
69523;SDS011;56723;42.694;23.286;2023-02-01T19:38:36;9.17;;;3.90;;
69523;SDS011;56723;42.694;23.286;2023-02-01T19:41:04;8.60;;;2.90;;
69523;SDS011;56723;42.694;23.286;2023-02-01T19:43:31;6.27;;;3.53;;
69523;SDS011;56723;42.694;23.286;2023-02-01T19:45:59;7.93;;;4.67;;
69523;SDS011;56723;42.694;23.286;2023-02-01T19:48:28;5.70;;;3.10;;
69523;SDS011;56723;42.694;23.286;2023-02-01T19:50:57;9.10;;;4.47;;
69523;SDS011;56723;42.694;23.286;2023-02-01T19:53:25;6.67;;;3.53;;
69523;SDS011;56723;42.694;23.286;2023-02-01T19:55:54;7.15;;;3.60;;
69523;SDS011;56723;42.694;23.286;2023-02-01T19:58:23;9.43;;;4.03;;
69523;SDS011;56723;42.694;23.286;2023-02-01T20:00:54;7.70;;;4.67;;
69523;SDS011;56723;42.694;23.286;2023-02-01T20:03:22;11.70;;;4.07;;
69523;SDS011;56723;42.694;23.286;2023-02-01T20:05:53;8.83;;;4.50;;
69523;SDS011;56723;42.694;23.286;2023-02-01T20:08:22;10.17;;;5.70;;
69523;SDS011;56723;42.694;23.286;2023-02-01T20:10:49;12.23;;;5.03;;
69523;SDS011;56723;42.694;23.286;2023-02-01T20:13:16;11.60;;;5.97;;
69523;SDS011;56723;42.694;23.286;2023-02-01T20:15:44;8.20;;;4.00;;
69523;SDS011;56723;42.694;23.286;2023-02-01T20:18:11;12.27;;;6.27;;
69523;SDS011;56723;42.694;23.286;2023-02-01T20:20:39;10.87;;;5.77;;
69523;SDS011;56723;42.694;23.286;2023-02-01T20:23:07;11.20;;;4.13;;
69523;SDS011;56723;42.694;23.286;2023-02-01T20:25:35;10.43;;;4.70;;
69523;SDS011;56723;42.694;23.286;2023-02-01T20:28:02;9.85;;;5.55;;
69523;SDS011;56723;42.694;23.286;2023-02-01T20:30:29;8.23;;;4.77;;
69523;SDS011;56723;42.694;23.286;2023-02-01T20:32:57;8.40;;;4.17;;
69523;SDS011;56723;42.694;23.286;2023-02-01T20:35:25;7.80;;;3.90;;
69523;SDS011;56723;42.694;23.286;2023-02-01T20:37:52;6.97;;;2.67;;
69523;SDS011;56723;42.694;23.286;2023-02-01T20:40:19;5.87;;;1.60;;
69523;SDS011;56723;42.694;23.286;2023-02-01T20:42:46;5.30;;;2.13;;
69523;SDS011;56723;42.694;23.286;2023-02-01T20:45:14;8.87;;;3.40;;
69523;SDS011;56723;42.694;23.286;2023-02-01T20:47:41;8.43;;;3.77;;
69523;SDS011;56723;42.694;23.286;2023-02-01T20:50:08;14.00;;;5.37;;
69523;SDS011;56723;42.694;23.286;2023-02-01T20:52:36;7.93;;;3.40;;
69523;SDS011;56723;42.694;23.286;2023-02-01T20:55:03;10.13;;;4.53;;
69523;SDS011;56723;42.694;23.286;2023-02-01T20:57:30;8.30;;;3.93;;
69523;SDS011;56723;42.694;23.286;2023-02-01T20:59:58;7.57;;;3.70;;
69523;SDS011;56723;42.694;23.286;2023-02-01T21:02:25;9.50;;;4.73;;
69523;SDS011;56723;42.694;23.286;2023-02-01T21:04:52;16.60;;;5.83;;
69523;SDS011;56723;42.694;23.286;2023-02-01T21:07:19;14.73;;;7.07;;
69523;SDS011;56723;42.694;23.286;2023-02-01T21:09:46;17.53;;;9.60;;
69523;SDS011;56723;42.694;23.286;2023-02-01T21:12:13;17.70;;;9.17;;
69523;SDS011;56723;42.694;23.286;2023-02-01T21:14:40;20.70;;;9.90;;
69523;SDS011;56723;42.694;23.286;2023-02-01T21:17:07;20.30;;;9.83;;
69523;SDS011;56723;42.694;23.286;2023-02-01T21:19:34;22.07;;;11.20;;
69523;SDS011;56723;42.694;23.286;2023-02-01T21:22:09;28.03;;;12.90;;
69523;SDS011;56723;42.694;23.286;2023-02-01T21:24:37;28.25;;;13.35;;
69523;SDS011;56723;42.694;23.286;2023-02-01T21:27:09;24.08;;;11.63;;
69523;SDS011;56723;42.694;23.286;2023-02-01T21:29:36;22.10;;;10.07;;
69523;SDS011;56723;42.694;23.286;2023-02-01T21:32:03;21.23;;;9.50;;
69523;SDS011;56723;42.694;23.286;2023-02-01T21:34:32;23.48;;;10.32;;
69523;SDS011;56723;42.694;23.286;2023-02-01T21:36:59;24.73;;;11.17;;
69523;SDS011;56723;42.694;23.286;2023-02-01T21:39:26;20.80;;;10.17;;
69523;SDS011;56723;42.694;23.286;2023-02-01T21:41:54;27.77;;;12.50;;
69523;SDS011;56723;42.694;23.286;2023-02-01T21:44:42;22.43;;;10.43;;
69523;SDS011;56723;42.694;23.286;2023-02-01T21:47:14;23.93;;;10.30;;
69523;SDS011;56723;42.694;23.286;2023-02-01T21:49:46;15.73;;;8.65;;
69523;SDS011;56723;42.694;23.286;2023-02-01T21:52:14;18.47;;;9.67;;
69523;SDS011;56723;42.694;23.286;2023-02-01T21:54:43;19.38;;;9.73;;
69523;SDS011;56723;42.694;23.286;2023-02-01T21:57:10;19.37;;;10.23;;
69523;SDS011;56723;42.694;23.286;2023-02-01T21:59:38;17.93;;;9.17;;
69523;SDS011;56723;42.694;23.286;2023-02-01T22:02:10;19.90;;;9.60;;
69523;SDS011;56723;42.694;23.286;2023-02-01T22:04:40;16.80;;;9.10;;
69523;SDS011;56723;42.694;23.286;2023-02-01T22:07:09;15.70;;;7.70;;
69523;SDS011;56723;42.694;23.286;2023-02-01T22:12:04;21.40;;;11.83;;
69523;SDS011;56723;42.694;23.286;2023-02-01T22:14:32;18.87;;;9.50;;
69523;SDS011;56723;42.694;23.286;2023-02-01T22:16:59;16.00;;;9.10;;
69523;SDS011;56723;42.694;23.286;2023-02-01T22:19:26;19.60;;;10.90;;
69523;SDS011;56723;42.694;23.286;2023-02-01T22:21:53;16.63;;;8.60;;
69523;SDS011;56723;42.694;23.286;2023-02-01T22:24:20;15.47;;;9.27;;
69523;SDS011;56723;42.694;23.286;2023-02-01T22:26:47;19.03;;;9.33;;
69523;SDS011;56723;42.694;23.286;2023-02-01T22:29:15;16.10;;;9.60;;
69523;SDS011;56723;42.694;23.286;2023-02-01T22:31:44;22.37;;;11.27;;
69523;SDS011;56723;42.694;23.286;2023-02-01T22:34:12;20.73;;;10.53;;
69523;SDS011;56723;42.694;23.286;2023-02-01T22:36:39;13.83;;;6.70;;
69523;SDS011;56723;42.694;23.286;2023-02-01T22:39:06;10.97;;;4.07;;
69523;SDS011;56723;42.694;23.286;2023-02-01T22:41:34;14.87;;;5.53;;
69523;SDS011;56723;42.694;23.286;2023-02-01T22:44:01;10.63;;;4.13;;
69523;SDS011;56723;42.694;23.286;2023-02-01T22:46:28;6.27;;;2.40;;
69523;SDS011;56723;42.694;23.286;2023-02-01T22:48:56;4.40;;;1.83;;
69523;SDS011;56723;42.694;23.286;2023-02-01T22:51:26;3.33;;;1.03;;
69523;SDS011;56723;42.694;23.286;2023-02-01T22:53:54;2.90;;;0.70;;
69523;SDS011;56723;42.694;23.286;2023-02-01T22:56:28;6.57;;;1.53;;
69523;SDS011;56723;42.694;23.286;2023-02-01T22:58:58;4.00;;;0.93;;
69523;SDS011;56723;42.694;23.286;2023-02-01T23:01:26;4.38;;;1.45;;
69523;SDS011;56723;42.694;23.286;2023-02-01T23:03:57;5.63;;;1.33;;
69523;SDS011;56723;42.694;23.286;2023-02-01T23:06:25;7.63;;;3.37;;
69523;SDS011;56723;42.694;23.286;2023-02-01T23:08:54;7.90;;;2.07;;
69523;SDS011;56723;42.694;23.286;2023-02-01T23:11:22;6.80;;;2.78;;
69523;SDS011;56723;42.694;23.286;2023-02-01T23:13:50;6.40;;;2.00;;
69523;SDS011;56723;42.694;23.286;2023-02-01T23:16:17;5.03;;;1.47;;
69523;SDS011;56723;42.694;23.286;2023-02-01T23:18:44;2.77;;;1.17;;
69523;SDS011;56723;42.694;23.286;2023-02-01T23:21:12;5.97;;;1.10;;
69523;SDS011;56723;42.694;23.286;2023-02-01T23:23:44;4.80;;;1.43;;
69523;SDS011;56723;42.694;23.286;2023-02-01T23:26:12;3.53;;;1.10;;
69523;SDS011;56723;42.694;23.286;2023-02-01T23:28:39;7.03;;;3.77;;
69523;SDS011;56723;42.694;23.286;2023-02-01T23:31:06;7.43;;;1.87;;
69523;SDS011;56723;42.694;23.286;2023-02-01T23:33:35;7.13;;;3.67;;
69523;SDS011;56723;42.694;23.286;2023-02-01T23:36:04;6.00;;;3.63;;
69523;SDS011;56723;42.694;23.286;2023-02-01T23:38:33;3.03;;;0.67;;
69523;SDS011;56723;42.694;23.286;2023-02-01T23:41:01;8.87;;;1.50;;
69523;SDS011;56723;42.694;23.286;2023-02-01T23:43:30;6.50;;;2.63;;
69523;SDS011;56723;42.694;23.286;2023-02-01T23:46:16;4.60;;;1.00;;
69523;SDS011;56723;42.694;23.286;2023-02-01T23:48:44;5.57;;;1.87;;
69523;SDS011;56723;42.694;23.286;2023-02-01T23:51:12;4.68;;;2.08;;
69523;SDS011;56723;42.694;23.286;2023-02-01T23:53:40;4.07;;;1.37;;
69523;SDS011;56723;42.694;23.286;2023-02-01T23:56:14;4.70;;;1.77;;
69523;SDS011;56723;42.694;23.286;2023-02-01T23:58:52;6.63;;;1.80;;
